Time;durP1;ratioP1;P1;durP2;ratioP2;P2;SDS_P1;SDS_P2;PMS_P1;PMS_P2;Temp;Humidity;BMP_temperature;BMP_pressure;BME280_temperature;BME280_humidity;BME280_pressure;Samples;Min_cycle;Max_cycle;Signal;HPM_P1;HPM_P2
2021/06/22 00:00:52;;;;;;;3.10;2.70;;;28.90;53.60;;;;;;4979878;28;20449;-80
2021/06/22 00:03:18;;;;;;;3.27;2.83;;;28.80;53.50;;;;;;4979946;28;20425;-80
2021/06/22 00:05:43;;;;;;;3.00;2.23;;;28.80;54.20;;;;;;4996880;28;20182;-78
2021/06/22 00:08:09;;;;;;;2.30;2.10;;;28.80;53.60;;;;;;4996675;28;20173;-79
2021/06/22 00:10:35;;;;;;;3.67;2.40;;;28.80;54.10;;;;;;4979673;28;20216;-80
2021/06/22 00:13:01;;;;;;;2.40;2.20;;;28.80;53.60;;;;;;4979627;28;20424;-80
2021/06/22 00:15:29;;;;;;;2.10;1.90;;;28.80;53.60;;;;;;4996332;28;20172;-80
2021/06/22 00:17:55;;;;;;;2.43;2.07;;;28.80;53.60;;;;;;4996148;28;20401;-79
2021/06/22 00:20:22;;;;;;;4.60;2.70;;;28.70;53.50;;;;;;4996145;28;20440;-79
2021/06/22 00:22:49;;;;;;;2.83;2.10;;;28.80;53.60;;;;;;4979353;28;20409;-79
2021/06/22 00:25:19;;;;;;;4.73;2.20;;;28.70;53.50;;;;;;4995797;28;20954;-80
2021/06/22 00:27:45;;;;;;;3.07;2.03;;;28.70;53.50;;;;;;4996312;28;20393;-78
2021/06/22 00:30:12;;;;;;;2.47;2.27;;;28.70;53.50;;;;;;4979208;28;20457;-80
2021/06/22 00:32:39;;;;;;;2.60;1.93;;;28.70;53.50;;;;;;4963916;28;20405;-80
2021/06/22 00:35:07;;;;;;;3.00;2.20;;;28.70;53.50;;;;;;4978598;28;20421;-81
2021/06/22 00:37:33;;;;;;;3.17;2.53;;;28.70;53.50;;;;;;4978820;28;20413;-81
2021/06/22 00:39:59;;;;;;;4.60;2.57;;;28.70;53.50;;;;;;4977973;28;20873;-80
2021/06/22 00:42:27;;;;;;;3.93;2.70;;;28.70;53.50;;;;;;4978528;28;20424;-80
2021/06/22 00:45:00;;;;;;;3.87;2.60;;;28.60;53.50;;;;;;4977997;28;20421;-80
2021/06/22 00:47:28;;;;;;;2.87;2.67;;;28.60;53.40;;;;;;4995695;28;20405;-80
2021/06/22 00:49:58;;;;;;;3.20;2.80;;;28.60;53.40;;;;;;4978471;28;20468;-80
2021/06/22 00:52:26;;;;;;;2.80;2.53;;;28.60;53.40;;;;;;4978466;28;20441;-80
2021/06/22 00:54:54;;;;;;;2.60;2.40;;;28.60;54.10;;;;;;4995181;28;20405;-80
2021/06/22 00:57:20;;;;;;;2.80;2.53;;;28.60;53.40;;;;;;4995334;28;20410;-80
2021/06/22 00:59:50;;;;;;;2.70;2.50;;;28.60;53.40;;;;;;4977740;28;20424;-79
2021/06/22 01:02:18;;;;;;;3.10;2.90;;;28.60;53.50;;;;;;4995808;28;20433;-79
2021/06/22 01:04:47;;;;;;;3.13;2.87;;;28.60;53.50;;;;;;4978899;28;20451;-80
2021/06/22 01:07:14;;;;;;;3.73;2.93;;;28.60;53.50;;;;;;4977899;28;20409;-80
2021/06/22 01:09:40;;;;;;;2.70;2.50;;;28.60;53.50;;;;;;4997765;28;20461;-79
2021/06/22 01:12:10;;;;;;;3.13;2.53;;;28.50;53.40;;;;;;4998932;28;20420;-80
2021/06/22 01:14:41;;;;;;;3.13;2.73;;;28.50;53.40;;;;;;4981289;28;20452;-80
2021/06/22 01:17:07;;;;;;;3.30;2.90;;;28.50;53.40;;;;;;4981771;28;20413;-80
2021/06/22 01:19:34;;;;;;;5.70;3.17;;;28.40;53.40;;;;;;4981717;28;20464;-80
2021/06/22 01:22:00;;;;;;;3.83;2.50;;;28.50;53.50;;;;;;4981601;28;20405;-79
2021/06/22 01:24:26;;;;;;;3.50;2.60;;;28.50;53.50;;;;;;4981367;28;20493;-80
2021/06/22 01:26:55;;;;;;;3.60;2.80;;;28.50;53.50;;;;;;4998412;28;20496;-80
2021/06/22 01:29:21;;;;;;;4.43;3.10;;;28.50;53.50;;;;;;4998620;28;20205;-80
2021/06/22 01:31:50;;;;;;;2.70;2.50;;;28.40;53.50;;;;;;4998219;28;20441;-79
2021/06/22 01:34:24;;;;;;;7.33;2.90;;;28.50;53.60;;;;;;4981625;28;20420;-79
2021/06/22 01:36:50;;;;;;;3.60;3.30;;;28.50;53.60;;;;;;4981781;28;20437;-79
2021/06/22 01:39:16;;;;;;;3.53;3.23;;;28.40;53.50;;;;;;4998445;28;20464;-80
2021/06/22 01:41:43;;;;;;;3.33;2.93;;;28.40;53.50;;;;;;4981225;28;20429;-80
2021/06/22 01:44:09;;;;;;;3.37;3.17;;;28.40;53.60;;;;;;4981285;28;20428;-80
2021/06/22 01:46:35;;;;;;;3.57;3.27;;;28.40;53.60;;;;;;4981544;28;20472;-80
2021/06/22 01:49:02;;;;;;;5.40;3.23;;;28.40;53.60;;;;;;4998492;28;20441;-80
2021/06/22 01:51:28;;;;;;;3.67;3.27;;;28.40;53.60;;;;;;4998117;28;20413;-81
2021/06/22 01:53:56;;;;;;;3.47;3.17;;;28.40;53.60;;;;;;4981248;28;20483;-80
2021/06/22 01:56:24;;;;;;;3.77;3.40;;;28.40;53.60;;;;;;4981607;28;20190;-79
2021/06/22 01:58:51;;;;;;;4.50;3.20;;;28.40;53.70;;;;;;4998453;28;20393;-80
2021/06/22 02:01:17;;;;;;;3.60;3.00;;;28.40;53.70;;;;;;4981464;28;20453;-80
2021/06/22 02:03:43;;;;;;;4.70;3.63;;;28.40;53.70;;;;;;4998022;28;20425;-80
2021/06/22 02:06:11;;;;;;;3.97;3.30;;;28.40;53.70;;;;;;4998272;28;20521;-80
2021/06/22 02:08:39;;;;;;;4.50;4.10;;;28.40;53.70;;;;;;4981392;28;20468;-80
2021/06/22 02:11:05;;;;;;;4.67;4.07;;;28.30;53.60;;;;;;4981696;28;20476;-80
2021/06/22 02:13:31;;;;;;;3.93;3.63;;;28.30;53.60;;;;;;4981168;28;20417;-79
2021/06/22 02:15:57;;;;;;;4.43;4.03;;;28.40;53.70;;;;;;4980889;28;20453;-80
2021/06/22 02:18:25;;;;;;;3.50;3.30;;;28.30;53.60;;;;;;4997809;28;20442;-79
2021/06/22 02:20:52;;;;;;;4.80;3.40;;;28.30;53.60;;;;;;4997641;28;20433;-79
2021/06/22 02:23:21;;;;;;;4.07;3.77;;;28.30;53.60;;;;;;4980897;28;20424;-79
2021/06/22 02:25:47;;;;;;;4.40;4.00;;;28.30;53.60;;;;;;4997495;28;20505;-79
2021/06/22 02:28:18;;;;;;;4.37;4.07;;;28.30;53.50;;;;;;4997653;28;20409;-79
2021/06/22 02:30:44;;;;;;;4.27;3.93;;;28.30;53.50;;;;;;4980795;28;20569;-80
2021/06/22 02:33:10;;;;;;;8.83;4.57;;;28.30;53.50;;;;;;4981182;28;20445;-79
2021/06/22 02:35:38;;;;;;;6.60;4.30;;;28.30;53.50;;;;;;4997861;28;20392;-80
2021/06/22 02:38:07;;;;;;;4.07;3.67;;;28.30;53.50;;;;;;4980795;28;20428;-80
2021/06/22 02:40:33;;;;;;;5.27;4.87;;;28.20;53.40;;;;;;4996912;28;20863;-79
2021/06/22 02:42:59;;;;;;;4.57;4.27;;;28.20;53.40;;;;;;4999060;28;20420;-79
2021/06/22 03:58:00;;;;;;;4.45;3.90;;;28.00;52.70;;;;;;6058414;23;21596;-80
2021/06/22 04:11:15;;;;;;;4.63;4.20;;;27.90;52.40;;;;;;6005926;23;20407;-81
2021/06/22 04:31:03;;;;;;;5.40;4.03;;;27.80;52.20;;;;;;4899892;29;20546;-78
2021/06/22 04:42:40;;;;;;;3.73;3.20;;;27.80;52.40;;;;;;5675432;23;20500;-81
2021/06/22 04:45:06;;;;;;;4.40;3.10;;;27.80;52.40;;;;;;4981493;28;20414;-79
2021/06/22 04:47:36;;;;;;;3.70;3.03;;;27.80;52.40;;;;;;4980550;29;20422;-79
2021/06/22 04:53:39;;;;;;;4.70;3.03;;;27.90;52.50;;;;;;4981420;29;20485;-79
2021/06/22 05:05:59;;;;;;;3.90;3.37;;;27.90;52.40;;;;;;4981417;29;20418;-80
2021/06/22 05:17:08;;;;;;;3.90;3.40;;;27.80;52.40;;;;;;5007818;23;20480;-78
2021/06/22 05:19:37;;;;;;;3.93;3.50;;;27.80;52.40;;;;;;4985305;28;20413;-79
2021/06/22 05:22:15;;;;;;;4.03;3.20;;;27.80;52.50;;;;;;4985343;28;20425;-79
2021/06/22 05:25:11;;;;;;;5.37;3.80;;;27.80;52.50;;;;;;4996229;28;20481;-79
2021/06/22 05:31:28;;;;;;;4.60;4.20;;;27.80;52.50;;;;;;5002075;28;20444;-78
2021/06/22 05:34:00;;;;;;;3.93;3.33;;;27.70;52.60;;;;;;4985696;28;20373;-78
2021/06/22 05:36:31;;;;;;;3.27;2.97;;;27.70;52.60;;;;;;4984848;28;20413;-78
2021/06/22 05:39:25;;;;;;;3.77;3.17;;;27.80;52.60;;;;;;5001761;28;20464;-78
2021/06/22 05:41:56;;;;;;;3.57;3.20;;;27.80;52.50;;;;;;4985143;28;20429;-78
2021/06/22 05:44:25;;;;;;;3.87;2.87;;;27.70;52.50;;;;;;4967303;28;20413;-77
2021/06/22 05:46:51;;;;;;;3.80;3.10;;;27.70;52.60;;;;;;4984867;28;20416;-80
2021/06/22 05:49:17;;;;;;;6.63;4.03;;;27.70;52.50;;;;;;4984679;28;20493;-79
2021/06/22 05:51:56;;;;;;;5.03;3.50;;;27.70;52.60;;;;;;5001624;28;20197;-80
2021/06/22 05:58:25;;;;;;;3.17;2.87;;;27.80;52.60;;;;;;5001605;28;20481;-80
2021/06/22 06:04:12;;;;;;;3.63;3.33;;;27.70;52.70;;;;;;5001591;28;20424;-79
2021/06/22 06:10:17;;;;;;;5.80;3.50;;;27.80;52.70;;;;;;4942317;29;20466;-79
2021/06/22 06:12:44;;;;;;;3.23;2.93;;;27.80;52.80;;;;;;4925386;29;20432;-79
2021/06/22 06:15:22;;;;;;;3.90;3.40;;;27.80;52.70;;;;;;4926333;29;20443;-79
2021/06/22 06:18:02;;;;;;;4.27;3.63;;;27.80;52.70;;;;;;4942103;29;20424;-78
2021/06/22 06:24:45;;;;;;;3.80;3.50;;;27.80;52.60;;;;;;4923290;29;20500;-78
2021/06/22 06:27:24;;;;;;;2.90;2.50;;;27.80;52.60;;;;;;4907481;29;20467;-79
2021/06/22 06:29:59;;;;;;;3.30;3.00;;;27.70;52.60;;;;;;4906958;29;20456;-79
2021/06/22 06:32:41;;;;;;;3.17;2.90;;;27.80;53.20;;;;;;4925945;29;20433;-81
2021/06/22 06:35:42;;;;;;;5.33;3.00;;;27.80;52.70;;;;;;4980125;28;20406;-79
2021/06/22 06:38:13;;;;;;;3.20;2.90;;;27.80;53.20;;;;;;4933708;29;20431;-79
2021/06/22 06:40:55;;;;;;;3.77;3.23;;;27.80;52.60;;;;;;4980088;28;20434;-78
2021/06/22 06:43:46;;;;;;;3.63;2.90;;;27.80;52.50;;;;;;4960270;29;20449;-78
2021/06/22 06:46:19;;;;;;;3.23;2.93;;;27.70;52.50;;;;;;4965026;29;20418;-79
2021/06/22 06:51:16;;;;;;;3.80;2.90;;;27.70;52.40;;;;;;4960451;29;20215;-79
2021/06/22 06:53:41;;;;;;;2.57;2.37;;;27.80;52.50;;;;;;4945324;29;20439;-78
2021/06/22 06:56:07;;;;;;;2.80;2.30;;;27.70;52.50;;;;;;4944965;29;20435;-78
2021/06/22 06:58:33;;;;;;;3.27;3.00;;;27.80;52.50;;;;;;4944971;29;20234;-79
2021/06/22 07:00:59;;;;;;;3.20;2.90;;;27.70;52.40;;;;;;4945191;29;20165;-78
2021/06/22 07:03:33;;;;;;;2.90;2.70;;;27.80;52.50;;;;;;4961586;29;20167;-79
2021/06/22 07:10:19;;;;;;;4.17;2.77;;;27.90;52.70;;;;;;4960682;29;20462;-79
2021/06/22 07:22:23;;;;;;;3.00;2.80;;;28.10;52.80;;;;;;4866139;29;20415;-79
2021/06/22 07:24:51;;;;;;;2.83;2.47;;;28.10;52.80;;;;;;4865943;29;20415;-79
2021/06/22 07:27:17;;;;;;;2.50;2.30;;;28.20;52.80;;;;;;4850000;29;20197;-79
2021/06/22 07:29:46;;;;;;;2.73;2.50;;;28.20;52.80;;;;;;4865338;29;20476;-80
2021/06/22 07:32:11;;;;;;;2.63;2.40;;;28.30;52.70;;;;;;4864639;29;20443;-80
2021/06/22 07:34:37;;;;;;;2.50;2.30;;;28.30;52.70;;;;;;4834014;29;20430;-80
2021/06/22 07:37:05;;;;;;;2.53;2.20;;;28.30;52.60;;;;;;4849620;29;20215;-80
2021/06/22 07:55:49;;;;;;;2.63;2.43;;;28.40;52.50;;;;;;4828018;29;20413;-80
2021/06/22 07:58:15;;;;;;;2.67;2.47;;;28.40;52.50;;;;;;4813472;29;20455;-80
2021/06/22 08:00:42;;;;;;;3.33;2.60;;;28.40;52.60;;;;;;4828609;29;20441;-80
2021/06/22 08:03:21;;;;;;;3.10;2.80;;;28.40;52.50;;;;;;4813426;29;20179;-80
2021/06/22 08:05:48;;;;;;;2.80;2.60;;;28.50;52.50;;;;;;4828572;29;20425;-79
2021/06/22 08:08:17;;;;;;;2.57;2.37;;;28.50;52.50;;;;;;4828721;29;20432;-80
2021/06/22 08:10:49;;;;;;;2.70;2.50;;;28.50;52.40;;;;;;4828065;29;20477;-78
2021/06/22 08:13:20;;;;;;;3.10;2.80;;;28.60;53.10;;;;;;4828315;29;20497;-79
2021/06/22 08:19:31;;;;;;;3.17;2.63;;;28.60;52.40;;;;;;4777879;30;20383;-80
2021/06/22 08:25:20;;;;;;;3.27;2.97;;;28.60;52.40;;;;;;4796221;29;20594;-79
2021/06/22 08:27:49;;;;;;;2.60;2.40;;;28.60;52.50;;;;;;4822400;29;20440;-79
2021/06/22 08:30:16;;;;;;;2.67;2.47;;;28.60;52.40;;;;;;5317528;23;20513;-80
2021/06/22 08:32:48;;;;;;;2.80;2.60;;;28.60;52.40;;;;;;4981308;28;20444;-79
2021/06/22 08:35:36;;;;;;;2.80;2.53;;;28.60;52.40;;;;;;4987832;28;20464;-78
2021/06/22 08:38:06;;;;;;;2.80;2.60;;;28.60;52.40;;;;;;5000345;28;20430;-79
2021/06/22 08:40:34;;;;;;;2.50;2.30;;;28.60;52.90;;;;;;4977192;28;20423;-80
2021/06/22 08:43:02;;;;;;;2.57;2.37;;;28.70;52.40;;;;;;4975592;28;20427;-79
2021/06/22 08:45:28;;;;;;;2.60;2.40;;;28.70;52.40;;;;;;4967959;28;20418;-80
2021/06/22 10:21:10;;;;;;;2.40;2.10;;;28.60;51.90;;;;;;5380721;23;20512;-78
2021/06/22 10:23:37;;;;;;;2.07;1.80;;;28.60;52.00;;;;;;5200994;23;20508;-79
2021/06/22 12:20:02;;;;;;;2.30;1.90;;;28.80;52.10;;;;;;5758663;23;20505;-80
2021/06/22 12:22:28;;;;;;;2.73;2.10;;;28.70;52.00;;;;;;4954753;28;20513;-80
2021/06/22 12:32:43;;;;;;;2.50;2.30;;;28.80;52.10;;;;;;5144710;23;20485;-78
2021/06/22 12:35:09;;;;;;;2.00;1.90;;;28.80;52.00;;;;;;4958697;29;20431;-79
2021/06/22 12:37:38;;;;;;;2.27;2.07;;;28.80;52.00;;;;;;4957048;29;20417;-80
2021/06/22 12:40:04;;;;;;;2.60;2.40;;;28.80;52.10;;;;;;4961220;29;20434;-80
2021/06/22 12:42:37;;;;;;;2.13;1.83;;;28.80;52.00;;;;;;4978825;28;20426;-79
2021/06/22 12:45:13;;;;;;;1.80;1.70;;;28.80;52.10;;;;;;4977972;29;20792;-79
2021/06/22 12:47:53;;;;;;;2.23;2.03;;;28.80;52.10;;;;;;4961005;29;20454;-80
2021/06/22 12:50:20;;;;;;;2.17;1.97;;;28.80;52.10;;;;;;4961234;29;20449;-80
2021/06/22 12:52:49;;;;;;;1.87;1.77;;;28.80;52.10;;;;;;4961378;29;20810;-78
2021/06/22 12:58:18;;;;;;;2.30;1.77;;;28.80;52.10;;;;;;4965065;29;20486;-78
2021/06/22 13:00:46;;;;;;;3.00;2.30;;;28.80;52.20;;;;;;4977292;29;20394;-78
2021/06/22 13:03:21;;;;;;;2.73;2.40;;;28.80;52.10;;;;;;4961978;29;20458;-78
2021/06/22 13:05:56;;;;;;;2.13;1.93;;;28.80;52.10;;;;;;4964120;29;20451;-79
2021/06/22 13:08:24;;;;;;;2.43;2.23;;;28.80;52.10;;;;;;4964241;29;20413;-79
2021/06/22 13:10:53;;;;;;;2.23;2.03;;;28.80;52.10;;;;;;4965002;29;20472;-79
2021/06/22 13:13:29;;;;;;;1.90;1.80;;;28.80;52.10;;;;;;4981649;29;20414;-79
2021/06/22 13:16:09;;;;;;;2.07;1.87;;;28.80;52.10;;;;;;4981864;29;20441;-78
2021/06/22 13:18:57;;;;;;;2.50;2.30;;;28.90;52.20;;;;;;4964261;29;20445;-80
2021/06/22 13:21:26;;;;;;;3.33;2.73;;;28.80;52.10;;;;;;4963968;29;20418;-79
2021/06/22 13:23:54;;;;;;;2.90;2.57;;;28.70;52.10;;;;;;4964165;29;20438;-80
2021/06/22 13:26:27;;;;;;;4.17;3.40;;;28.80;52.10;;;;;;4981337;29;20414;-79
2021/06/22 13:29:20;;;;;;;6.63;2.83;;;28.80;52.20;;;;;;4964486;29;20426;-78
2021/06/22 13:32:03;;;;;;;3.90;3.50;;;28.80;52.10;;;;;;4903092;29;20464;-78
2021/06/22 13:34:35;;;;;;;8.30;4.50;;;28.80;52.20;;;;;;4903693;29;20422;-79
2021/06/22 13:37:13;;;;;;;5.87;3.83;;;28.80;52.20;;;;;;4889124;29;20923;-79
2021/06/22 13:40:01;;;;;;;5.17;3.90;;;28.80;52.20;;;;;;4903169;29;20413;-79
2021/06/22 13:42:33;;;;;;;5.07;4.40;;;28.80;52.20;;;;;;4903476;29;20173;-79
2021/06/22 13:45:10;;;;;;;5.73;4.60;;;28.80;52.30;;;;;;4887348;29;20437;-78
2021/06/22 13:47:44;;;;;;;6.00;4.70;;;28.80;52.20;;;;;;4902689;29;20421;-78
2021/06/22 13:50:23;;;;;;;7.00;5.27;;;28.80;52.30;;;;;;4887033;29;20502;-79
2021/06/22 13:52:57;;;;;;;7.37;5.13;;;28.80;52.30;;;;;;4887456;29;20830;-78
2021/06/22 13:55:36;;;;;;;5.97;5.10;;;28.80;52.30;;;;;;4903502;29;20410;-78
2021/06/22 13:58:07;;;;;;;5.90;4.67;;;28.80;52.30;;;;;;4887288;29;20425;-79
2021/06/22 14:00:40;;;;;;;5.33;4.70;;;28.80;52.30;;;;;;4906470;29;20424;-78
2021/06/22 14:03:09;;;;;;;7.23;4.80;;;28.80;52.30;;;;;;4930312;29;20478;-78
2021/06/22 14:05:39;;;;;;;6.20;4.43;;;28.80;52.30;;;;;;4944860;29;20439;-78
2021/06/22 14:08:07;;;;;;;4.40;4.00;;;28.80;52.30;;;;;;4929472;29;20447;-78
2021/06/22 14:10:34;;;;;;;5.23;4.10;;;28.80;52.30;;;;;;4944577;29;20470;-79
2021/06/22 14:13:03;;;;;;;7.20;4.67;;;28.80;52.30;;;;;;4945012;29;20440;-79
2021/06/22 14:15:30;;;;;;;6.53;4.90;;;28.80;52.40;;;;;;4943976;29;20426;-78
2021/06/22 14:17:56;;;;;;;6.93;5.00;;;28.80;52.30;;;;;;4943837;29;20453;-79
2021/06/22 14:20:25;;;;;;;6.00;3.60;;;28.80;52.30;;;;;;4960360;29;20410;-79
2021/06/22 14:22:51;;;;;;;5.23;4.20;;;28.80;52.30;;;;;;4959667;29;20423;-79
2021/06/22 14:25:17;;;;;;;5.50;4.43;;;28.80;52.40;;;;;;4959155;29;20438;-78
2021/06/22 14:27:46;;;;;;;5.27;4.50;;;28.80;52.40;;;;;;4941993;29;20427;-78
2021/06/22 14:30:16;;;;;;;4.53;4.13;;;28.80;52.40;;;;;;4958775;29;20462;-79
2021/06/22 14:32:43;;;;;;;6.40;4.40;;;28.80;52.40;;;;;;4942446;29;20478;-79
2021/06/22 14:35:13;;;;;;;6.10;3.80;;;28.80;52.40;;;;;;4942153;29;20415;-78
2021/06/22 14:37:40;;;;;;;5.27;3.90;;;28.80;52.40;;;;;;4943052;29;20418;-79
2021/06/22 14:40:09;;;;;;;4.50;4.10;;;28.80;52.40;;;;;;4958804;29;20427;-79
2021/06/22 14:42:36;;;;;;;3.90;3.60;;;28.80;53.00;;;;;;4942877;29;20426;-79
2021/06/22 14:45:12;;;;;;;4.20;3.80;;;28.80;52.40;;;;;;4943460;29;20463;-79
2021/06/22 14:47:38;;;;;;;5.97;3.80;;;28.80;53.00;;;;;;4943215;29;20478;-79
2021/06/22 14:50:08;;;;;;;4.57;3.47;;;28.80;52.40;;;;;;4943097;29;20465;-79
2021/06/22 14:52:34;;;;;;;4.80;3.80;;;28.80;52.40;;;;;;4959247;29;20431;-79
2021/06/22 14:55:03;;;;;;;3.90;3.40;;;28.80;52.40;;;;;;4942141;29;20451;-78
2021/06/22 14:57:32;;;;;;;3.93;3.50;;;28.70;52.40;;;;;;4942816;29;20411;-78
2021/06/22 14:59:59;;;;;;;4.40;3.60;;;28.80;52.40;;;;;;4959477;29;20416;-79
2021/06/22 15:02:35;;;;;;;3.40;2.90;;;28.80;52.40;;;;;;4959001;29;20418;-79
2021/06/22 15:05:04;;;;;;;3.80;3.50;;;28.80;52.40;;;;;;4942507;29;20406;-79
2021/06/22 15:07:30;;;;;;;3.80;3.33;;;28.70;52.30;;;;;;4942451;29;20430;-78
2021/06/22 15:09:56;;;;;;;2.93;2.67;;;28.70;52.30;;;;;;4942149;29;20459;-79
2021/06/22 15:12:27;;;;;;;4.17;3.37;;;28.80;52.40;;;;;;4945417;29;20506;-79
2021/06/22 15:14:57;;;;;;;3.20;2.90;;;28.80;52.40;;;;;;4976196;29;20414;-79
2021/06/22 15:17:28;;;;;;;2.80;2.50;;;28.70;52.90;;;;;;4957048;29;20421;-79
2021/06/22 15:19:54;;;;;;;3.10;2.70;;;28.70;52.30;;;;;;4958849;29;20434;-80
2021/06/22 15:22:20;;;;;;;2.67;2.47;;;28.70;52.40;;;;;;4958240;29;20435;-80
2021/06/22 15:24:46;;;;;;;3.00;2.53;;;28.70;52.40;;;;;;4976415;29;20170;-78
2021/06/22 15:27:14;;;;;;;2.83;2.63;;;28.70;52.40;;;;;;4973753;28;20186;-79
2021/06/22 15:29:58;;;;;;;2.60;2.40;;;28.70;52.40;;;;;;4971364;29;20461;-79
2021/06/22 15:32:31;;;;;;;2.80;2.50;;;28.70;52.40;;;;;;4950232;29;20446;-79
2021/06/22 15:35:02;;;;;;;2.30;2.10;;;28.70;52.40;;;;;;4958529;28;20438;-79
2021/06/22 15:37:47;;;;;;;2.47;2.27;;;28.70;52.40;;;;;;4952166;29;20466;-79
2021/06/22 15:40:17;;;;;;;2.40;2.20;;;28.70;52.40;;;;;;4968453;29;20494;-79
2021/06/22 15:42:49;;;;;;;2.00;1.90;;;28.70;52.40;;;;;;4952147;29;20438;-79
2021/06/22 15:49:06;;;;;;;3.47;2.53;;;28.60;52.40;;;;;;4968034;29;20427;-79
2021/06/22 15:52:04;;;;;;;2.50;2.30;;;28.60;53.00;;;;;;4927359;29;20413;-81
2021/06/22 15:58:04;;;;;;;2.20;2.10;;;28.60;52.50;;;;;;4973840;29;20559;-78
2021/06/22 16:00:49;;;;;;;2.30;2.20;;;28.50;52.50;;;;;;4959868;29;20429;-78
2021/06/22 16:03:14;;;;;;;2.40;2.20;;;28.50;52.60;;;;;;4955262;29;20414;-78
2021/06/22 16:05:41;;;;;;;2.67;2.17;;;28.50;52.70;;;;;;4967251;29;20438;-79
2021/06/22 16:08:07;;;;;;;2.57;2.37;;;28.50;52.60;;;;;;4955188;29;20426;-79
2021/06/22 16:10:34;;;;;;;3.20;2.90;;;28.50;52.60;;;;;;4932270;29;20470;-79
2021/06/22 16:13:00;;;;;;;2.97;2.77;;;28.50;52.60;;;;;;4958461;29;20430;-80
2021/06/22 16:15:26;;;;;;;3.07;2.80;;;28.50;52.60;;;;;;4953540;29;20489;-79
2021/06/22 16:17:51;;;;;;;3.23;2.50;;;28.40;52.50;;;;;;4951235;29;20434;-78
2021/06/22 16:20:22;;;;;;;2.60;2.40;;;28.50;52.50;;;;;;4956766;29;20190;-79
2021/06/22 16:22:49;;;;;;;2.70;2.50;;;28.40;52.50;;;;;;4967639;29;20186;-78
2021/06/22 16:25:17;;;;;;;2.83;2.63;;;28.50;52.60;;;;;;4950507;29;20496;-79
2021/06/22 16:27:45;;;;;;;2.73;2.53;;;28.40;52.50;;;;;;4973535;29;20430;-78
2021/06/22 16:30:13;;;;;;;2.97;2.67;;;28.40;52.50;;;;;;4966632;29;20530;-79
2021/06/22 16:35:11;;;;;;;2.77;2.57;;;28.40;52.60;;;;;;4976485;28;20480;-79
2021/06/22 17:01:02;;;;;;;4.17;3.07;;;28.20;53.00;;;;;;5975201;23;20391;-80
2021/06/22 17:03:29;;;;;;;2.73;2.53;;;28.10;54.00;;;;;;4974873;29;20425;-80
2021/06/22 17:05:56;;;;;;;2.60;2.40;;;28.00;54.00;;;;;;4979278;29;20484;-80
2021/06/22 17:08:26;;;;;;;3.33;2.77;;;28.00;54.00;;;;;;4959367;29;20438;-79
2021/06/22 17:11:04;;;;;;;3.40;2.80;;;28.00;54.10;;;;;;4952885;29;20462;-80
2021/06/22 17:13:35;;;;;;;2.93;2.73;;;28.10;54.20;;;;;;4952795;29;20421;-79
2021/06/22 17:16:27;;;;;;;3.00;2.77;;;28.00;54.40;;;;;;4962433;29;20393;-80
2021/06/22 17:18:57;;;;;;;2.80;2.60;;;28.00;54.70;;;;;;4961131;29;20401;-80
2021/06/22 17:21:24;;;;;;;2.80;2.60;;;28.00;54.70;;;;;;4943453;29;20422;-79
2021/06/22 17:23:50;;;;;;;4.20;2.07;;;28.00;54.70;;;;;;4959145;29;20411;-79
2021/06/22 17:26:20;;;;;;;2.80;2.60;;;28.00;54.60;;;;;;4959227;29;20426;-78
2021/06/22 17:28:49;;;;;;;2.40;2.20;;;28.00;54.50;;;;;;4969734;29;20428;-80
2021/06/22 17:31:18;;;;;;;2.40;2.20;;;28.10;54.50;;;;;;4962548;29;20436;-79
2021/06/22 17:33:48;;;;;;;2.67;2.47;;;28.10;54.60;;;;;;4945049;29;20812;-79
2021/06/22 17:36:18;;;;;;;4.43;2.83;;;28.10;54.60;;;;;;4978747;29;20793;-78
2021/06/22 17:38:44;;;;;;;2.33;2.10;;;28.10;54.70;;;;;;4961966;29;20414;-79
2021/06/22 17:41:14;;;;;;;2.13;1.93;;;28.10;55.40;;;;;;4979214;29;20507;-80
2021/06/22 17:43:41;;;;;;;2.70;2.50;;;28.10;54.80;;;;;;4979730;29;20410;-80
2021/06/22 17:46:07;;;;;;;2.67;2.47;;;28.10;54.90;;;;;;4963377;29;20429;-80
2021/06/22 17:48:36;;;;;;;2.10;2.00;;;28.10;54.80;;;;;;4979958;29;20414;-78
2021/06/22 17:51:02;;;;;;;2.57;2.20;;;28.10;54.80;;;;;;4961334;29;20445;-79
2021/06/22 17:53:28;;;;;;;2.63;2.43;;;28.10;54.80;;;;;;4979744;29;20422;-80
2021/06/22 17:55:55;;;;;;;2.57;1.97;;;28.10;54.90;;;;;;4962810;29;20501;-80
2021/06/22 17:58:21;;;;;;;2.57;2.00;;;28.10;54.90;;;;;;4979638;29;20765;-79
2021/06/22 18:00:47;;;;;;;2.20;2.00;;;28.10;54.90;;;;;;4979483;29;20445;-79
2021/06/22 18:03:13;;;;;;;3.00;2.33;;;28.10;54.90;;;;;;4962462;29;20489;-79
2021/06/22 18:05:40;;;;;;;2.47;2.27;;;28.10;55.00;;;;;;4962194;29;20425;-79
2021/06/22 18:08:08;;;;;;;4.13;2.30;;;28.10;55.00;;;;;;4961232;29;20445;-79
2021/06/22 18:10:41;;;;;;;2.60;2.40;;;28.10;55.00;;;;;;4979023;29;20469;-79
2021/06/22 18:13:09;;;;;;;5.40;2.80;;;28.10;55.00;;;;;;4962178;29;20422;-79
2021/06/22 18:15:35;;;;;;;3.27;2.43;;;28.10;55.00;;;;;;4961011;29;20422;-79
2021/06/22 18:18:01;;;;;;;2.23;2.00;;;28.10;55.00;;;;;;4961625;29;20394;-79
2021/06/22 18:20:27;;;;;;;3.03;2.20;;;28.10;55.00;;;;;;4962380;29;20210;-79
2021/06/22 18:22:55;;;;;;;2.33;2.13;;;28.10;54.90;;;;;;4961996;29;20178;-79
2021/06/22 18:25:22;;;;;;;2.30;2.10;;;28.10;54.80;;;;;;4946076;29;20402;-79
2021/06/22 18:27:52;;;;;;;2.47;1.90;;;28.10;54.80;;;;;;4960062;29;20422;-80
2021/06/22 18:30:19;;;;;;;2.40;1.90;;;28.10;54.70;;;;;;4977193;29;20457;-78
2021/06/22 18:32:46;;;;;;;2.60;2.30;;;28.10;54.70;;;;;;4960634;29;20523;-80
2021/06/22 18:35:14;;;;;;;3.57;2.20;;;28.10;54.60;;;;;;4960138;29;20422;-78
2021/06/22 18:37:40;;;;;;;2.07;1.87;;;28.10;54.60;;;;;;4976642;29;20414;-80
2021/06/22 18:40:09;;;;;;;2.37;2.17;;;28.10;54.60;;;;;;4960099;29;20426;-79
2021/06/22 18:42:35;;;;;;;2.57;2.37;;;28.10;54.60;;;;;;4959971;29;20430;-79
2021/06/22 18:45:05;;;;;;;2.10;1.90;;;28.10;54.60;;;;;;4960124;29;20430;-79
2021/06/22 18:47:30;;;;;;;2.70;2.50;;;28.00;54.50;;;;;;4959590;29;20442;-79
2021/06/22 18:49:56;;;;;;;2.30;2.10;;;28.00;54.50;;;;;;4976440;29;20461;-79
2021/06/22 18:52:22;;;;;;;2.20;2.00;;;28.10;54.50;;;;;;4959760;29;20178;-80
2021/06/22 18:54:48;;;;;;;2.30;2.10;;;28.00;54.40;;;;;;4976440;29;20429;-79
2021/06/22 18:57:14;;;;;;;2.37;2.17;;;28.00;54.40;;;;;;4959899;29;20183;-80
2021/06/22 19:06:24;;;;;;;1.97;1.87;;;28.00;54.20;;;;;;4880530;29;20429;-80
2021/06/22 19:08:56;;;;;;;2.20;2.00;;;27.90;54.30;;;;;;4864628;29;20852;-80
2021/06/22 19:11:22;;;;;;;2.83;2.63;;;28.00;54.30;;;;;;4880394;29;20435;-81
2021/06/22 19:13:50;;;;;;;6.37;2.37;;;27.90;54.20;;;;;;4879667;29;21088;-80
2021/06/22 19:16:16;;;;;;;2.77;2.57;;;27.90;54.10;;;;;;4864038;29;20201;-80
2021/06/22 19:18:43;;;;;;;3.23;2.43;;;28.00;54.20;;;;;;4863735;29;20430;-80
2021/06/22 19:21:09;;;;;;;2.70;2.50;;;27.90;54.00;;;;;;4863444;29;20214;-80
2021/06/22 19:23:35;;;;;;;3.23;3.00;;;27.90;54.00;;;;;;4862776;29;20419;-80
2021/06/22 19:26:01;;;;;;;2.20;2.00;;;27.90;54.00;;;;;;4878021;29;20241;-79
2021/06/22 19:28:27;;;;;;;3.10;2.90;;;27.90;54.00;;;;;;4863265;29;20450;-79
2021/06/22 19:30:53;;;;;;;2.70;2.50;;;27.90;54.00;;;;;;4878786;29;20690;-81
2021/06/22 19:33:26;;;;;;;2.97;2.77;;;27.90;53.90;;;;;;4915019;29;20182;-80
2021/06/22 19:35:55;;;;;;;2.87;2.67;;;27.90;53.90;;;;;;4958458;29;20421;-81
2021/06/22 19:38:21;;;;;;;2.43;2.23;;;27.90;53.90;;;;;;4958859;29;20410;-80
2021/06/22 19:40:48;;;;;;;2.73;2.53;;;27.90;53.90;;;;;;4958971;29;20426;-78
2021/06/22 19:43:13;;;;;;;2.93;2.33;;;27.90;53.80;;;;;;4959162;29;20940;-79
2021/06/22 19:45:40;;;;;;;2.93;2.63;;;27.90;53.80;;;;;;4957593;29;20460;-79
2021/06/22 19:48:08;;;;;;;2.60;2.40;;;27.90;53.80;;;;;;4953098;29;20436;-78
2021/06/22 19:50:34;;;;;;;2.70;2.50;;;27.90;53.80;;;;;;4953180;29;20462;-79
2021/06/22 19:53:00;;;;;;;2.70;2.50;;;27.90;53.80;;;;;;4953764;29;20426;-79
2021/06/22 19:55:26;;;;;;;2.90;2.70;;;27.90;53.70;;;;;;4952893;29;20421;-80
2021/06/22 19:57:53;;;;;;;2.53;2.33;;;27.90;53.70;;;;;;4953000;29;20182;-80
2021/06/22 20:00:20;;;;;;;2.50;2.30;;;27.80;53.70;;;;;;4969769;29;20498;-80
2021/06/22 20:02:46;;;;;;;2.90;2.50;;;27.80;53.70;;;;;;4952896;29;20430;-79
2021/06/22 20:05:12;;;;;;;2.63;2.43;;;27.80;53.70;;;;;;4953078;29;20452;-80
2021/06/22 20:07:44;;;;;;;3.07;2.80;;;27.80;53.70;;;;;;4952802;29;20564;-79
2021/06/22 20:10:10;;;;;;;3.90;3.03;;;27.80;53.70;;;;;;4969972;29;20457;-79
2021/06/22 20:12:36;;;;;;;2.90;2.70;;;27.80;54.30;;;;;;4952169;29;20422;-80
2021/06/22 20:15:06;;;;;;;3.47;3.17;;;27.80;53.70;;;;;;4969925;29;21029;-80
2021/06/22 20:17:35;;;;;;;3.30;3.00;;;27.80;53.70;;;;;;4952332;29;20421;-79
2021/06/22 20:20:01;;;;;;;3.30;3.00;;;27.80;53.70;;;;;;4952668;29;20422;-79
2021/06/22 20:22:26;;;;;;;3.00;2.70;;;27.70;53.60;;;;;;4951921;29;20449;-78
2021/06/22 20:24:52;;;;;;;3.23;2.97;;;27.70;53.50;;;;;;4953606;29;20242;-81
2021/06/22 20:27:18;;;;;;;3.63;3.33;;;27.80;53.60;;;;;;4954354;29;20426;-80